sensor_id;sensor_type;location;lat;lon;timestamp;temperature;humidity
15184;DHT22;7693;49.266;7.104;2023-11-21T05:01:47;8.80;99.90
15184;DHT22;7693;49.266;7.104;2023-11-21T05:04:12;8.80;99.90
15184;DHT22;7693;49.266;7.104;2023-11-21T05:06:40;8.80;99.90
15184;DHT22;7693;49.266;7.104;2023-11-21T05:09:05;8.90;99.90
15184;DHT22;7693;49.266;7.104;2023-11-21T05:11:31;8.90;99.90
15184;DHT22;7693;49.266;7.104;2023-11-21T05:13:57;9.00;99.90
15184;DHT22;7693;49.266;7.104;2023-11-21T05:16:26;9.00;99.90
15184;DHT22;7693;49.266;7.104;2023-11-21T05:18:53;9.00;99.90
15184;DHT22;7693;49.266;7.104;2023-11-21T05:21:18;9.00;99.90
15184;DHT22;7693;49.266;7.104;2023-11-21T05:23:46;9.00;99.90
15184;DHT22;7693;49.266;7.104;2023-11-21T05:26:11;9.10;99.90
15184;DHT22;7693;49.266;7.104;2023-11-21T05:28:37;9.10;99.90
15184;DHT22;7693;49.266;7.104;2023-11-21T05:31:03;9.10;99.90
15184;DHT22;7693;49.266;7.104;2023-11-21T05:33:28;9.10;99.90
15184;DHT22;7693;49.266;7.104;2023-11-21T05:35:54;9.10;99.90
15184;DHT22;7693;49.266;7.104;2023-11-21T05:38:19;9.10;99.90
15184;DHT22;7693;49.266;7.104;2023-11-21T05:40:47;9.10;99.90
15184;DHT22;7693;49.266;7.104;2023-11-21T05:43:13;9.10;99.90
15184;DHT22;7693;49.266;7.104;2023-11-21T05:45:39;9.20;99.90
15184;DHT22;7693;49.266;7.104;2023-11-21T05:48:04;9.20;99.90
15184;DHT22;7693;49.266;7.104;2023-11-21T05:50:31;9.20;99.90
15184;DHT22;7693;49.266;7.104;2023-11-21T05:52:58;9.20;99.90
15184;DHT22;7693;49.266;7.104;2023-11-21T05:55:26;9.20;99.90
15184;DHT22;7693;49.266;7.104;2023-11-21T05:57:51;9.20;99.90
15184;DHT22;7693;49.266;7.104;2023-11-21T06:00:17;9.20;99.90
15184;DHT22;7693;49.266;7.104;2023-11-21T06:02:50;9.10;99.90
15184;DHT22;7693;49.266;7.104;2023-11-21T06:05:19;9.10;99.90
15184;DHT22;7693;49.266;7.104;2023-11-21T06:07:45;9.20;99.90
15184;DHT22;7693;49.266;7.104;2023-11-21T06:10:11;9.10;99.90
15184;DHT22;7693;49.266;7.104;2023-11-21T06:12:39;9.10;99.90
15184;DHT22;7693;49.266;7.104;2023-11-21T06:15:08;9.10;99.90
15184;DHT22;7693;49.266;7.104;2023-11-21T06:17:38;9.10;99.90
15184;DHT22;7693;49.266;7.104;2023-11-21T06:20:05;9.10;99.90
15184;DHT22;7693;49.266;7.104;2023-11-21T06:22:38;9.10;99.90
15184;DHT22;7693;49.266;7.104;2023-11-21T06:25:05;9.10;99.90
15184;DHT22;7693;49.266;7.104;2023-11-21T06:27:37;9.10;99.90
15184;DHT22;7693;49.266;7.104;2023-11-21T06:30:03;9.10;99.90
15184;DHT22;7693;49.266;7.104;2023-11-21T06:32:29;9.10;99.90
15184;DHT22;7693;49.266;7.104;2023-11-21T06:34:56;9.10;99.90
15184;DHT22;7693;49.266;7.104;2023-11-21T06:37:21;9.00;99.90
15184;DHT22;7693;49.266;7.104;2023-11-21T06:39:49;9.00;99.90
15184;DHT22;7693;49.266;7.104;2023-11-21T06:42:17;9.00;99.90
15184;DHT22;7693;49.266;7.104;2023-11-21T06:44:45;9.00;99.90
15184;DHT22;7693;49.266;7.104;2023-11-21T06:47:10;9.00;99.90
15184;DHT22;7693;49.266;7.104;2023-11-21T06:49:36;9.00;99.90
15184;DHT22;7693;49.266;7.104;2023-11-21T06:52:04;9.00;99.90
15184;DHT22;7693;49.266;7.104;2023-11-21T06:54:31;9.00;99.90
15184;DHT22;7693;49.266;7.104;2023-11-21T06:56:57;9.00;99.90
15184;DHT22;7693;49.266;7.104;2023-11-21T06:59:23;9.00;99.90
15184;DHT22;7693;49.266;7.104;2023-11-21T07:01:49;9.00;99.90
15184;DHT22;7693;49.266;7.104;2023-11-21T07:04:15;9.00;99.90
15184;DHT22;7693;49.266;7.104;2023-11-21T07:06:40;9.00;99.90
15184;DHT22;7693;49.266;7.104;2023-11-21T07:09:06;9.00;99.90
15184;DHT22;7693;49.266;7.104;2023-11-21T07:11:34;9.00;99.90
15184;DHT22;7693;49.266;7.104;2023-11-21T07:14:00;9.00;99.90
15184;DHT22;7693;49.266;7.104;2023-11-21T07:16:30;9.00;99.90
15184;DHT22;7693;49.266;7.104;2023-11-21T07:18:56;9.00;99.90
15184;DHT22;7693;49.266;7.104;2023-11-21T07:21:22;9.00;99.90
15184;DHT22;7693;49.266;7.104;2023-11-21T07:23:47;9.00;99.90
15184;DHT22;7693;49.266;7.104;2023-11-21T07:26:13;9.00;99.90
15184;DHT22;7693;49.266;7.104;2023-11-21T07:28:38;9.00;99.90
15184;DHT22;7693;49.266;7.104;2023-11-21T07:31:04;8.90;99.90
15184;DHT22;7693;49.266;7.104;2023-11-21T07:33:30;9.00;99.90
15184;DHT22;7693;49.266;7.104;2023-11-21T07:35:56;9.10;99.90
15184;DHT22;7693;49.266;7.104;2023-11-21T07:38:22;9.10;99.90
15184;DHT22;7693;49.266;7.104;2023-11-21T07:40:48;9.10;99.90
15184;DHT22;7693;49.266;7.104;2023-11-21T07:43:14;9.10;99.90
15184;DHT22;7693;49.266;7.104;2023-11-21T07:45:39;9.10;99.90
15184;DHT22;7693;49.266;7.104;2023-11-21T07:48:05;9.10;99.90
15184;DHT22;7693;49.266;7.104;2023-11-21T07:50:32;9.10;99.90
15184;DHT22;7693;49.266;7.104;2023-11-21T07:52:58;9.10;99.90
15184;DHT22;7693;49.266;7.104;2023-11-21T07:55:23;9.10;99.90
15184;DHT22;7693;49.266;7.104;2023-11-21T07:57:50;9.10;99.90
15184;DHT22;7693;49.266;7.104;2023-11-21T08:00:16;9.10;99.90
15184;DHT22;7693;49.266;7.104;2023-11-21T08:02:42;9.20;99.90
15184;DHT22;7693;49.266;7.104;2023-11-21T08:05:08;9.20;99.90
15184;DHT22;7693;49.266;7.104;2023-11-21T08:07:34;9.20;99.90
15184;DHT22;7693;49.266;7.104;2023-11-21T08:10:00;9.20;99.90
15184;DHT22;7693;49.266;7.104;2023-11-21T08:12:26;9.20;99.90
15184;DHT22;7693;49.266;7.104;2023-11-21T08:14:53;9.20;99.90
15184;DHT22;7693;49.266;7.104;2023-11-21T08:17:19;9.20;99.90
15184;DHT22;7693;49.266;7.104;2023-11-21T08:19:45;9.30;99.90
15184;DHT22;7693;49.266;7.104;2023-11-21T08:22:15;9.30;99.90
15184;DHT22;7693;49.266;7.104;2023-11-21T08:24:41;9.30;99.90
15184;DHT22;7693;49.266;7.104;2023-11-21T08:27:07;9.30;99.90
15184;DHT22;7693;49.266;7.104;2023-11-21T08:29:32;9.30;99.90
15184;DHT22;7693;49.266;7.104;2023-11-21T08:31:59;9.20;99.90
15184;DHT22;7693;49.266;7.104;2023-11-21T08:34:25;9.30;99.90
15184;DHT22;7693;49.266;7.104;2023-11-21T08:36:51;9.30;99.90
15184;DHT22;7693;49.266;7.104;2023-11-21T08:39:16;9.30;99.90
15184;DHT22;7693;49.266;7.104;2023-11-21T08:41:44;9.40;99.90
15184;DHT22;7693;49.266;7.104;2023-11-21T08:44:10;9.40;99.90
15184;DHT22;7693;49.266;7.104;2023-11-21T08:46:36;9.40;99.90
15184;DHT22;7693;49.266;7.104;2023-11-21T08:49:03;9.50;99.90
15184;DHT22;7693;49.266;7.104;2023-11-21T08:51:29;9.50;99.90
15184;DHT22;7693;49.266;7.104;2023-11-21T08:53:55;9.50;99.90
15184;DHT22;7693;49.266;7.104;2023-11-21T08:56:24;9.50;99.90
15184;DHT22;7693;49.266;7.104;2023-11-21T08:58:50;9.60;99.90
15184;DHT22;7693;49.266;7.104;2023-11-21T09:01:16;9.60;99.90
15184;DHT22;7693;49.266;7.104;2023-11-21T09:03:42;9.60;99.90
15184;DHT22;7693;49.266;7.104;2023-11-21T09:06:09;9.60;99.90
15184;DHT22;7693;49.266;7.104;2023-11-21T09:08:35;9.60;99.90
15184;DHT22;7693;49.266;7.104;2023-11-21T09:11:01;9.70;99.90
15184;DHT22;7693;49.266;7.104;2023-11-21T09:13:26;9.70;99.90
15184;DHT22;7693;49.266;7.104;2023-11-21T09:15:52;9.70;99.90
15184;DHT22;7693;49.266;7.104;2023-11-21T09:18:18;9.70;99.90
15184;DHT22;7693;49.266;7.104;2023-11-21T09:20:44;9.70;99.90
15184;DHT22;7693;49.266;7.104;2023-11-21T09:23:10;9.70;99.90
15184;DHT22;7693;49.266;7.104;2023-11-21T09:25:35;9.80;99.90
15184;DHT22;7693;49.266;7.104;2023-11-21T09:28:03;9.80;99.90
15184;DHT22;7693;49.266;7.104;2023-11-21T09:30:33;9.80;99.90
15184;DHT22;7693;49.266;7.104;2023-11-21T09:32:59;9.80;99.90
15184;DHT22;7693;49.266;7.104;2023-11-21T09:35:26;9.90;99.90
15184;DHT22;7693;49.266;7.104;2023-11-21T09:37:53;10.00;99.90
15184;DHT22;7693;49.266;7.104;2023-11-21T09:40:21;10.10;99.90
15184;DHT22;7693;49.266;7.104;2023-11-21T09:42:57;10.10;99.90
15184;DHT22;7693;49.266;7.104;2023-11-21T09:45:35;10.20;99.90
15184;DHT22;7693;49.266;7.104;2023-11-21T09:48:01;10.20;99.90
15184;DHT22;7693;49.266;7.104;2023-11-21T09:50:27;10.20;99.90
15184;DHT22;7693;49.266;7.104;2023-11-21T09:55:45;10.20;99.90
15184;DHT22;7693;49.266;7.104;2023-11-21T09:58:11;10.20;99.90
15184;DHT22;7693;49.266;7.104;2023-11-21T10:00:48;10.20;99.90
15184;DHT22;7693;49.266;7.104;2023-11-21T10:03:14;10.20;99.90
15184;DHT22;7693;49.266;7.104;2023-11-21T10:05:42;10.10;99.90
15184;DHT22;7693;49.266;7.104;2023-11-21T10:08:09;10.10;99.90
15184;DHT22;7693;49.266;7.104;2023-11-21T10:10:45;10.10;99.90
15184;DHT22;7693;49.266;7.104;2023-11-21T10:13:13;10.20;99.90
15184;DHT22;7693;49.266;7.104;2023-11-21T10:15:42;10.20;99.90
15184;DHT22;7693;49.266;7.104;2023-11-21T10:18:14;10.20;99.90
15184;DHT22;7693;49.266;7.104;2023-11-21T10:20:40;10.20;99.90
15184;DHT22;7693;49.266;7.104;2023-11-21T10:23:08;10.10;99.90
15184;DHT22;7693;49.266;7.104;2023-11-21T10:25:37;10.20;99.90
15184;DHT22;7693;49.266;7.104;2023-11-21T10:28:03;10.20;99.90
15184;DHT22;7693;49.266;7.104;2023-11-21T10:30:37;10.20;99.90
15184;DHT22;7693;49.266;7.104;2023-11-21T10:33:07;10.20;99.90
15184;DHT22;7693;49.266;7.104;2023-11-21T10:35:49;10.30;99.90
15184;DHT22;7693;49.266;7.104;2023-11-21T10:38:17;10.20;99.90
15184;DHT22;7693;49.266;7.104;2023-11-21T10:40:43;10.20;99.90
15184;DHT22;7693;49.266;7.104;2023-11-21T10:43:12;10.20;99.90
15184;DHT22;7693;49.266;7.104;2023-11-21T10:45:39;10.10;99.90
15184;DHT22;7693;49.266;7.104;2023-11-21T10:48:09;10.10;99.90
15184;DHT22;7693;49.266;7.104;2023-11-21T10:50:36;10.10;99.90
15184;DHT22;7693;49.266;7.104;2023-11-21T10:53:03;10.20;99.90
15184;DHT22;7693;49.266;7.104;2023-11-21T10:55:30;10.20;99.90
15184;DHT22;7693;49.266;7.104;2023-11-21T10:57:59;10.20;99.90
15184;DHT22;7693;49.266;7.104;2023-11-21T13:40:59;10.50;99.90
15184;DHT22;7693;49.266;7.104;2023-11-21T13:43:25;10.50;99.90
15184;DHT22;7693;49.266;7.104;2023-11-21T13:45:54;10.50;99.90
15184;DHT22;7693;49.266;7.104;2023-11-21T13:48:29;10.40;99.90
15184;DHT22;7693;49.266;7.104;2023-11-21T13:51:03;10.40;99.90
15184;DHT22;7693;49.266;7.104;2023-11-21T13:53:46;10.40;99.90
15184;DHT22;7693;49.266;7.104;2023-11-21T13:56:15;10.40;99.90
15184;DHT22;7693;49.266;7.104;2023-11-21T13:58:52;10.40;99.90
15184;DHT22;7693;49.266;7.104;2023-11-21T14:01:18;10.40;99.90
15184;DHT22;7693;49.266;7.104;2023-11-21T14:04:10;10.40;99.90
15184;DHT22;7693;49.266;7.104;2023-11-21T14:07:01;10.40;99.90
15184;DHT22;7693;49.266;7.104;2023-11-21T14:09:45;10.40;99.90
15184;DHT22;7693;49.266;7.104;2023-11-21T14:12:12;10.40;99.90
15184;DHT22;7693;49.266;7.104;2023-11-21T14:14:39;10.40;99.90
15184;DHT22;7693;49.266;7.104;2023-11-21T14:17:05;10.50;99.90
15184;DHT22;7693;49.266;7.104;2023-11-21T14:19:32;10.50;99.90
15184;DHT22;7693;49.266;7.104;2023-11-21T14:21:59;10.50;99.90
15184;DHT22;7693;49.266;7.104;2023-11-21T14:24:25;10.50;99.90
15184;DHT22;7693;49.266;7.104;2023-11-21T14:26:51;10.50;99.90
15184;DHT22;7693;49.266;7.104;2023-11-21T14:29:19;10.50;99.90
15184;DHT22;7693;49.266;7.104;2023-11-21T14:31:49;10.50;99.90
15184;DHT22;7693;49.266;7.104;2023-11-21T14:34:16;10.50;99.90
15184;DHT22;7693;49.266;7.104;2023-11-21T14:36:42;10.50;99.90
15184;DHT22;7693;49.266;7.104;2023-11-21T14:39:09;10.50;99.90
15184;DHT22;7693;49.266;7.104;2023-11-21T14:41:46;10.50;99.90
15184;DHT22;7693;49.266;7.104;2023-11-21T14:44:12;10.60;99.90
15184;DHT22;7693;49.266;7.104;2023-11-21T14:46:39;10.60;99.90
15184;DHT22;7693;49.266;7.104;2023-11-21T14:49:08;10.60;99.90
15184;DHT22;7693;49.266;7.104;2023-11-21T14:51:53;10.60;99.90
15184;DHT22;7693;49.266;7.104;2023-11-21T14:54:32;10.60;99.90
15184;DHT22;7693;49.266;7.104;2023-11-21T14:57:09;10.60;99.90
15184;DHT22;7693;49.266;7.104;2023-11-21T14:59:42;10.60;99.90
15184;DHT22;7693;49.266;7.104;2023-11-21T15:02:08;10.60;99.90
15184;DHT22;7693;49.266;7.104;2023-11-21T15:04:43;10.50;99.90
15184;DHT22;7693;49.266;7.104;2023-11-21T15:07:09;10.50;99.90
15184;DHT22;7693;49.266;7.104;2023-11-21T15:09:37;10.50;99.90
15184;DHT22;7693;49.266;7.104;2023-11-21T15:12:10;10.50;99.90
15184;DHT22;7693;49.266;7.104;2023-11-21T15:14:49;10.50;99.90
15184;DHT22;7693;49.266;7.104;2023-11-21T15:17:18;10.50;99.90
15184;DHT22;7693;49.266;7.104;2023-11-21T15:20:03;10.40;99.90
15184;DHT22;7693;49.266;7.104;2023-11-21T15:22:29;10.40;99.90
15184;DHT22;7693;49.266;7.104;2023-11-21T15:24:55;10.40;99.90
15184;DHT22;7693;49.266;7.104;2023-11-21T15:27:21;10.40;99.90
15184;DHT22;7693;49.266;7.104;2023-11-21T15:29:47;10.30;99.90
15184;DHT22;7693;49.266;7.104;2023-11-21T15:32:15;10.30;99.90
15184;DHT22;7693;49.266;7.104;2023-11-21T15:34:41;10.30;99.90
15184;DHT22;7693;49.266;7.104;2023-11-21T15:37:07;10.30;99.90
15184;DHT22;7693;49.266;7.104;2023-11-21T15:39:36;10.30;99.90
15184;DHT22;7693;49.266;7.104;2023-11-21T15:42:02;10.30;99.90
15184;DHT22;7693;49.266;7.104;2023-11-21T15:44:29;10.30;99.90
15184;DHT22;7693;49.266;7.104;2023-11-21T15:46:57;10.30;99.90
15184;DHT22;7693;49.266;7.104;2023-11-21T15:49:23;10.20;99.90
15184;DHT22;7693;49.266;7.104;2023-11-21T15:51:49;10.20;99.90
15184;DHT22;7693;49.266;7.104;2023-11-21T15:54:21;10.20;99.90
15184;DHT22;7693;49.266;7.104;2023-11-21T15:56:48;10.10;99.90
15184;DHT22;7693;49.266;7.104;2023-11-21T15:59:14;10.10;99.90
15184;DHT22;7693;49.266;7.104;2023-11-21T16:01:41;10.10;99.90
15184;DHT22;7693;49.266;7.104;2023-11-21T16:04:10;10.10;99.90
15184;DHT22;7693;49.266;7.104;2023-11-21T16:06:37;10.10;99.90
15184;DHT22;7693;49.266;7.104;2023-11-21T16:09:05;10.10;99.90
15184;DHT22;7693;49.266;7.104;2023-11-21T16:11:31;10.00;99.90
15184;DHT22;7693;49.266;7.104;2023-11-21T16:13:59;10.00;99.90
15184;DHT22;7693;49.266;7.104;2023-11-21T16:16:24;10.00;99.90
15184;DHT22;7693;49.266;7.104;2023-11-21T16:18:50;10.00;99.90
15184;DHT22;7693;49.266;7.104;2023-11-21T16:21:16;10.00;99.90
15184;DHT22;7693;49.266;7.104;2023-11-21T16:23:42;10.00;99.90
15184;DHT22;7693;49.266;7.104;2023-11-21T16:26:08;10.00;99.90
15184;DHT22;7693;49.266;7.104;2023-11-21T16:28:34;10.00;99.90
15184;DHT22;7693;49.266;7.104;2023-11-21T16:30:59;9.90;99.90
15184;DHT22;7693;49.266;7.104;2023-11-21T16:33:25;10.00;99.90
15184;DHT22;7693;49.266;7.104;2023-11-21T16:35:51;9.90;99.90
15184;DHT22;7693;49.266;7.104;2023-11-21T16:38:16;9.90;99.90
15184;DHT22;7693;49.266;7.104;2023-11-21T16:40:42;9.90;99.90
15184;DHT22;7693;49.266;7.104;2023-11-21T16:43:10;9.90;99.90
15184;DHT22;7693;49.266;7.104;2023-11-21T16:45:36;9.90;99.90
15184;DHT22;7693;49.266;7.104;2023-11-21T16:48:02;9.90;99.90
15184;DHT22;7693;49.266;7.104;2023-11-21T16:50:28;9.90;99.90
15184;DHT22;7693;49.266;7.104;2023-11-21T16:52:54;9.80;99.90
15184;DHT22;7693;49.266;7.104;2023-11-21T16:55:20;9.90;99.90
15184;DHT22;7693;49.266;7.104;2023-11-21T16:57:45;9.80;99.90
15184;DHT22;7693;49.266;7.104;2023-11-21T17:00:11;9.80;99.90
15184;DHT22;7693;49.266;7.104;2023-11-21T17:02:38;9.70;99.90
15184;DHT22;7693;49.266;7.104;2023-11-21T17:05:06;9.70;99.90
15184;DHT22;7693;49.266;7.104;2023-11-21T17:07:31;9.70;99.90
15184;DHT22;7693;49.266;7.104;2023-11-21T17:09:57;9.60;99.90
15184;DHT22;7693;49.266;7.104;2023-11-21T17:12:23;9.60;99.90
15184;DHT22;7693;49.266;7.104;2023-11-21T17:14:49;9.60;99.90
15184;DHT22;7693;49.266;7.104;2023-11-21T17:17:15;9.60;99.90
15184;DHT22;7693;49.266;7.104;2023-11-21T17:19:41;9.50;99.90
15184;DHT22;7693;49.266;7.104;2023-11-21T17:22:08;9.50;99.90
15184;DHT22;7693;49.266;7.104;2023-11-21T17:24:34;9.60;99.90
15184;DHT22;7693;49.266;7.104;2023-11-21T17:27:05;9.60;99.90
15184;DHT22;7693;49.266;7.104;2023-11-21T17:29:31;9.60;99.90
15184;DHT22;7693;49.266;7.104;2023-11-21T17:31:57;9.60;99.90
15184;DHT22;7693;49.266;7.104;2023-11-21T17:34:22;9.60;99.90
15184;DHT22;7693;49.266;7.104;2023-11-21T17:36:48;9.50;99.90
15184;DHT22;7693;49.266;7.104;2023-11-21T17:39:14;9.50;99.90
15184;DHT22;7693;49.266;7.104;2023-11-21T17:41:39;9.50;99.90
15184;DHT22;7693;49.266;7.104;2023-11-21T17:44:07;9.50;99.90
15184;DHT22;7693;49.266;7.104;2023-11-21T17:46:32;9.50;99.90
15184;DHT22;7693;49.266;7.104;2023-11-21T17:48:58;9.50;99.90
15184;DHT22;7693;49.266;7.104;2023-11-21T17:51:24;9.50;99.90
15184;DHT22;7693;49.266;7.104;2023-11-21T17:53:50;9.50;99.90
15184;DHT22;7693;49.266;7.104;2023-11-21T17:56:17;9.50;99.90
15184;DHT22;7693;49.266;7.104;2023-11-21T17:58:43;9.50;99.90
15184;DHT22;7693;49.266;7.104;2023-11-21T18:01:09;9.60;99.90
15184;DHT22;7693;49.266;7.104;2023-11-21T18:03:36;9.60;99.90
15184;DHT22;7693;49.266;7.104;2023-11-21T18:06:03;9.60;99.90
15184;DHT22;7693;49.266;7.104;2023-11-21T18:08:29;9.60;99.90
15184;DHT22;7693;49.266;7.104;2023-11-21T18:10:55;9.60;99.90
15184;DHT22;7693;49.266;7.104;2023-11-21T18:13:22;9.60;99.90
15184;DHT22;7693;49.266;7.104;2023-11-21T18:15:48;9.60;99.90
15184;DHT22;7693;49.266;7.104;2023-11-21T18:18:14;9.60;99.90
15184;DHT22;7693;49.266;7.104;2023-11-21T18:20:39;9.50;99.90
15184;DHT22;7693;49.266;7.104;2023-11-21T18:23:06;9.60;99.90
15184;DHT22;7693;49.266;7.104;2023-11-21T18:25:32;9.50;99.90
15184;DHT22;7693;49.266;7.104;2023-11-21T18:27:57;9.50;99.90
15184;DHT22;7693;49.266;7.104;2023-11-21T18:30:23;9.50;99.90
15184;DHT22;7693;49.266;7.104;2023-11-21T18:32:48;9.50;99.90
15184;DHT22;7693;49.266;7.104;2023-11-21T18:35:14;9.50;99.90
15184;DHT22;7693;49.266;7.104;2023-11-21T18:37:40;9.50;99.90
15184;DHT22;7693;49.266;7.104;2023-11-21T18:40:08;9.50;99.90
15184;DHT22;7693;49.266;7.104;2023-11-21T18:42:34;9.50;99.90
15184;DHT22;7693;49.266;7.104;2023-11-21T18:45:00;9.50;99.90
15184;DHT22;7693;49.266;7.104;2023-11-21T18:47:26;9.50;99.90
15184;DHT22;7693;49.266;7.104;2023-11-21T18:49:52;9.40;99.90
15184;DHT22;7693;49.266;7.104;2023-11-21T18:52:17;9.40;99.90
15184;DHT22;7693;49.266;7.104;2023-11-21T18:54:43;9.40;99.90
15184;DHT22;7693;49.266;7.104;2023-11-21T18:57:10;9.40;99.90
15184;DHT22;7693;49.266;7.104;2023-11-21T18:59:36;9.40;99.90
15184;DHT22;7693;49.266;7.104;2023-11-21T19:02:02;9.40;99.90
15184;DHT22;7693;49.266;7.104;2023-11-21T19:04:28;9.40;99.90
15184;DHT22;7693;49.266;7.104;2023-11-21T19:06:54;9.40;99.90
15184;DHT22;7693;49.266;7.104;2023-11-21T19:09:25;9.40;99.90
15184;DHT22;7693;49.266;7.104;2023-11-21T19:11:51;9.40;99.90
15184;DHT22;7693;49.266;7.104;2023-11-21T19:14:16;9.40;99.90
15184;DHT22;7693;49.266;7.104;2023-11-21T19:16:42;9.40;99.90
15184;DHT22;7693;49.266;7.104;2023-11-21T19:19:07;9.40;99.90
15184;DHT22;7693;49.266;7.104;2023-11-21T19:21:33;9.40;99.90
15184;DHT22;7693;49.266;7.104;2023-11-21T19:23:59;9.40;99.90
15184;DHT22;7693;49.266;7.104;2023-11-21T19:26:24;9.40;99.90
15184;DHT22;7693;49.266;7.104;2023-11-21T19:28:50;9.40;99.90
15184;DHT22;7693;49.266;7.104;2023-11-21T19:31:19;9.40;99.90
15184;DHT22;7693;49.266;7.104;2023-11-21T19:33:46;9.40;99.90
15184;DHT22;7693;49.266;7.104;2023-11-21T19:36:13;9.30;99.90
15184;DHT22;7693;49.266;7.104;2023-11-21T19:38:39;9.30;99.90
15184;DHT22;7693;49.266;7.104;2023-11-21T19:41:15;9.30;99.90
15184;DHT22;7693;49.266;7.104;2023-11-21T19:43:45;9.30;99.90
15184;DHT22;7693;49.266;7.104;2023-11-21T19:46:12;9.30;99.90
15184;DHT22;7693;49.266;7.104;2023-11-21T19:48:38;9.30;99.90
15184;DHT22;7693;49.266;7.104;2023-11-21T19:51:06;9.30;99.90
15184;DHT22;7693;49.266;7.104;2023-11-21T19:53:32;9.30;99.90
15184;DHT22;7693;49.266;7.104;2023-11-21T19:55:58;9.30;99.90
15184;DHT22;7693;49.266;7.104;2023-11-21T19:58:26;9.30;99.90
15184;DHT22;7693;49.266;7.104;2023-11-21T20:00:52;9.30;99.90
15184;DHT22;7693;49.266;7.104;2023-11-21T20:03:17;9.30;99.90
15184;DHT22;7693;49.266;7.104;2023-11-21T20:05:44;9.30;99.90
15184;DHT22;7693;49.266;7.104;2023-11-21T20:08:10;9.40;99.90
15184;DHT22;7693;49.266;7.104;2023-11-21T20:10:36;9.40;99.90
15184;DHT22;7693;49.266;7.104;2023-11-21T20:13:03;9.40;99.90
15184;DHT22;7693;49.266;7.104;2023-11-21T20:15:29;9.40;99.90
15184;DHT22;7693;49.266;7.104;2023-11-21T20:17:55;9.40;99.90
15184;DHT22;7693;49.266;7.104;2023-11-21T20:20:20;9.40;99.90
15184;DHT22;7693;49.266;7.104;2023-11-21T20:22:46;9.40;99.90
15184;DHT22;7693;49.266;7.104;2023-11-21T20:25:13;9.40;99.90
15184;DHT22;7693;49.266;7.104;2023-11-21T20:27:40;9.30;99.90
15184;DHT22;7693;49.266;7.104;2023-11-21T20:30:06;9.30;99.90
15184;DHT22;7693;49.266;7.104;2023-11-21T20:32:34;9.30;99.90
15184;DHT22;7693;49.266;7.104;2023-11-21T20:35:01;9.30;99.90
15184;DHT22;7693;49.266;7.104;2023-11-21T20:37:27;9.30;99.90
15184;DHT22;7693;49.266;7.104;2023-11-21T20:39:53;9.30;99.90
15184;DHT22;7693;49.266;7.104;2023-11-21T20:42:18;9.30;99.90
15184;DHT22;7693;49.266;7.104;2023-11-21T20:44:44;9.20;99.90
15184;DHT22;7693;49.266;7.104;2023-11-21T20:47:10;9.20;99.90
15184;DHT22;7693;49.266;7.104;2023-11-21T20:49:35;9.20;99.90
15184;DHT22;7693;49.266;7.104;2023-11-21T20:52:01;9.30;99.90
15184;DHT22;7693;49.266;7.104;2023-11-21T20:54:27;9.20;99.90
15184;DHT22;7693;49.266;7.104;2023-11-21T20:56:53;9.20;99.90
15184;DHT22;7693;49.266;7.104;2023-11-21T20:59:19;9.20;99.90
15184;DHT22;7693;49.266;7.104;2023-11-21T21:01:44;9.20;99.90
15184;DHT22;7693;49.266;7.104;2023-11-21T21:04:10;9.20;99.90
15184;DHT22;7693;49.266;7.104;2023-11-21T21:06:37;9.20;99.90
15184;DHT22;7693;49.266;7.104;2023-11-21T21:09:03;9.20;99.90
15184;DHT22;7693;49.266;7.104;2023-11-21T21:11:29;9.20;99.90
15184;DHT22;7693;49.266;7.104;2023-11-21T21:14:00;9.20;99.90
15184;DHT22;7693;49.266;7.104;2023-11-21T21:16:26;9.20;99.90
15184;DHT22;7693;49.266;7.104;2023-11-21T21:18:53;9.10;99.90
15184;DHT22;7693;49.266;7.104;2023-11-21T21:21:19;9.10;99.90
15184;DHT22;7693;49.266;7.104;2023-11-21T21:23:45;9.10;99.90
15184;DHT22;7693;49.266;7.104;2023-11-21T21:26:10;9.10;99.90
15184;DHT22;7693;49.266;7.104;2023-11-21T21:28:36;9.10;99.90
15184;DHT22;7693;49.266;7.104;2023-11-21T21:31:02;9.10;99.90
15184;DHT22;7693;49.266;7.104;2023-11-21T21:33:28;9.10;99.90
15184;DHT22;7693;49.266;7.104;2023-11-21T21:35:53;9.10;99.90
15184;DHT22;7693;49.266;7.104;2023-11-21T21:38:19;9.10;99.90
15184;DHT22;7693;49.266;7.104;2023-11-21T21:40:45;9.10;99.90
15184;DHT22;7693;49.266;7.104;2023-11-21T21:43:11;9.00;99.90
15184;DHT22;7693;49.266;7.104;2023-11-21T21:45:37;9.10;99.90
15184;DHT22;7693;49.266;7.104;2023-11-21T21:48:03;9.10;99.90
15184;DHT22;7693;49.266;7.104;2023-11-21T21:50:29;9.10;99.90
15184;DHT22;7693;49.266;7.104;2023-11-21T21:52:55;9.10;99.90
15184;DHT22;7693;49.266;7.104;2023-11-21T21:55:21;9.10;99.90
15184;DHT22;7693;49.266;7.104;2023-11-21T21:57:47;9.10;99.90
15184;DHT22;7693;49.266;7.104;2023-11-21T22:00:13;9.10;99.90
15184;DHT22;7693;49.266;7.104;2023-11-21T22:02:40;9.10;99.90
15184;DHT22;7693;49.266;7.104;2023-11-21T22:05:11;9.10;99.90
15184;DHT22;7693;49.266;7.104;2023-11-21T22:07:37;9.10;99.90
15184;DHT22;7693;49.266;7.104;2023-11-21T22:10:05;9.10;99.90
15184;DHT22;7693;49.266;7.104;2023-11-21T22:12:30;9.10;99.90
15184;DHT22;7693;49.266;7.104;2023-11-21T22:14:56;9.20;99.90
15184;DHT22;7693;49.266;7.104;2023-11-21T22:17:22;9.20;99.90
15184;DHT22;7693;49.266;7.104;2023-11-21T22:19:47;9.20;99.90
15184;DHT22;7693;49.266;7.104;2023-11-21T22:22:13;9.20;99.90
15184;DHT22;7693;49.266;7.104;2023-11-21T22:24:38;9.20;99.90
15184;DHT22;7693;49.266;7.104;2023-11-21T22:27:04;9.20;99.90
15184;DHT22;7693;49.266;7.104;2023-11-21T22:29:31;9.20;99.90
15184;DHT22;7693;49.266;7.104;2023-11-21T22:31:57;9.20;99.90
15184;DHT22;7693;49.266;7.104;2023-11-21T22:34:22;9.20;99.90
15184;DHT22;7693;49.266;7.104;2023-11-21T22:36:50;9.30;99.90
15184;DHT22;7693;49.266;7.104;2023-11-21T22:39:15;9.30;99.90
15184;DHT22;7693;49.266;7.104;2023-11-21T22:41:42;9.20;99.90
15184;DHT22;7693;49.266;7.104;2023-11-21T22:44:09;9.30;99.90
15184;DHT22;7693;49.266;7.104;2023-11-21T22:46:41;9.20;99.90
15184;DHT22;7693;49.266;7.104;2023-11-21T22:49:06;9.20;99.90
15184;DHT22;7693;49.266;7.104;2023-11-21T22:51:33;9.20;99.90
15184;DHT22;7693;49.266;7.104;2023-11-21T22:53:59;9.20;99.90
15184;DHT22;7693;49.266;7.104;2023-11-21T22:56:24;9.20;99.90
15184;DHT22;7693;49.266;7.104;2023-11-21T22:58:50;9.20;99.90
15184;DHT22;7693;49.266;7.104;2023-11-21T23:01:16;9.20;99.90
15184;DHT22;7693;49.266;7.104;2023-11-21T23:03:41;9.20;99.90
15184;DHT22;7693;49.266;7.104;2023-11-21T23:06:07;9.20;99.90
15184;DHT22;7693;49.266;7.104;2023-11-21T23:08:32;9.20;99.90
15184;DHT22;7693;49.266;7.104;2023-11-21T23:10:59;9.10;99.90
15184;DHT22;7693;49.266;7.104;2023-11-21T23:13:25;9.10;99.90
15184;DHT22;7693;49.266;7.104;2023-11-21T23:15:50;9.10;99.90
15184;DHT22;7693;49.266;7.104;2023-11-21T23:18:18;9.10;99.90
